Time;durP1;ratioP1;P1;durP2;ratioP2;P2;SDS_P1;SDS_P2;PMS_P1;PMS_P2;Temp;Humidity;BMP_temperature;BMP_pressure;BME280_temperature;BME280_humidity;BME280_pressure;Samples;Min_cycle;Max_cycle;Signal;HPM_P1;HPM_P2
2023/01/27 00:01:15;;;;;;;15.35;3.72;;;;;;;4.46;100.00;102348.34;4701818;30;20416;-62
2023/01/27 00:03:43;;;;;;;17.20;4.30;;;;;;;4.49;100.00;102347.13;4706127;30;20049;-64
2023/01/27 00:06:11;;;;;;;14.88;3.97;;;;;;;4.51;100.00;102345.06;4705703;30;20057;-64
2023/01/27 00:08:39;;;;;;;15.35;3.97;;;;;;;4.51;100.00;102342.38;4718567;30;20061;-62
2023/01/27 00:13:53;;;;;;;18.13;3.72;;;;;;;4.46;100.00;102340.25;4719787;30;20063;-64
2023/01/27 00:16:20;;;;;;;19.58;3.85;;;;;;;4.43;100.00;102348.72;4703951;30;20056;-63
2023/01/27 00:18:48;;;;;;;23.67;4.85;;;;;;;4.41;100.00;102349.94;4719139;30;20049;-64
2023/01/27 00:26:48;;;;;;;18.88;4.43;;;;;;;4.31;100.00;102349.41;4719440;30;20110;-64
2023/01/27 00:29:18;;;;;;;13.75;3.83;;;;;;;4.27;100.00;102355.16;4716753;30;20053;-64
2023/01/27 00:34:31;;;;;;;14.55;3.50;;;;;;;4.20;100.00;102359.63;4703604;30;20107;-66
2023/01/27 00:36:59;;;;;;;13.85;3.92;;;;;;;4.20;100.00;102362.34;4718618;30;20091;-65
2023/01/27 00:39:27;;;;;;;11.90;3.80;;;;;;;4.22;100.00;102354.91;4702197;30;20467;-64
2023/01/27 00:41:55;;;;;;;18.25;4.35;;;;;;;4.23;100.00;102356.59;4696837;30;20057;-64
2023/01/27 00:44:23;;;;;;;16.33;4.38;;;;;;;4.19;100.00;102355.28;4668576;30;20141;-65
2023/01/27 00:46:51;;;;;;;13.00;3.92;;;;;;;4.18;100.00;102355.47;4696997;30;20120;-63
2023/01/27 00:49:19;;;;;;;13.55;3.63;;;;;;;4.16;100.00;102362.91;4696234;30;20064;-64
2023/01/27 00:51:46;;;;;;;13.50;3.80;;;;;;;4.16;100.00;102363.75;4684335;30;20068;-64
2023/01/27 00:54:15;;;;;;;17.83;4.32;;;;;;;4.09;100.00;102361.97;4697452;30;20082;-64
2023/01/27 00:56:45;;;;;;;13.43;3.80;;;;;;;4.05;100.00;102366.91;4684307;30;20058;-64
2023/01/27 00:59:13;;;;;;;15.13;4.00;;;;;;;4.05;100.00;102356.97;4696208;30;20057;-66
2023/01/27 01:01:41;;;;;;;12.13;4.10;;;;;;;4.03;100.00;102364.41;4683768;30;20571;-63
2023/01/27 01:04:09;;;;;;;15.52;4.40;;;;;;;4.05;100.00;102369.63;4697135;30;20113;-63
2023/01/27 01:06:36;;;;;;;13.60;3.63;;;;;;;4.08;100.00;102360.31;4668135;30;20088;-66
2023/01/27 01:09:04;;;;;;;13.18;3.60;;;;;;;4.06;100.00;102371.28;4684232;30;20182;-65
2023/01/27 01:11:32;;;;;;;15.20;4.20;;;;;;;4.01;100.00;102365.59;4681864;30;20108;-63
2023/01/27 01:13:59;;;;;;;15.05;4.22;;;;;;;3.99;100.00;102362.25;4696884;30;20056;-65
2023/01/27 01:16:27;;;;;;;13.45;3.53;;;;;;;4.01;100.00;102371.00;4683172;30;20408;-65
2023/01/27 01:18:55;;;;;;;13.02;4.20;;;;;;;3.98;100.00;102374.06;4682898;30;20570;-63
2023/01/27 01:21:23;;;;;;;17.20;4.22;;;;;;;3.98;100.00;102366.81;4695054;30;20064;-63
2023/01/27 01:23:50;;;;;;;16.27;4.00;;;;;;;4.01;100.00;102365.59;4696839;30;20054;-64
2023/01/27 01:26:18;;;;;;;19.98;4.43;;;;;;;4.01;100.00;102371.00;4683677;30;20057;-63
2023/01/27 01:28:47;;;;;;;17.95;4.32;;;;;;;4.02;100.00;102372.69;4683931;30;20058;-63
2023/01/27 01:31:17;;;;;;;17.38;3.95;;;;;;;4.02;100.00;102381.63;4682034;30;21543;-64
2023/01/27 01:33:46;;;;;;;15.75;3.95;;;;;;;4.03;100.00;102391.38;4682685;30;20104;-65
2023/01/27 01:36:16;;;;;;;14.50;4.38;;;;;;;4.06;100.00;102387.47;4682309;30;20129;-64
2023/01/27 01:38:44;;;;;;;15.07;4.07;;;;;;;4.04;100.00;102392.19;4695198;30;20073;-64
2023/01/27 01:41:22;;;;;;;13.07;3.78;;;;;;;4.02;100.00;102389.69;4717150;30;20065;-65
2023/01/27 01:43:50;;;;;;;16.52;4.55;;;;;;;4.04;100.00;102394.91;4716323;30;20053;-64
2023/01/27 01:46:18;;;;;;;11.77;3.83;;;;;;;4.01;100.00;102392.56;4717732;30;20111;-63
2023/01/27 01:48:48;;;;;;;10.90;3.75;;;;;;;3.96;100.00;102395.00;4718184;30;20049;-64
2023/01/27 01:51:20;;;;;;;15.77;4.10;;;;;;;4.00;100.00;102399.00;4717046;30;20061;-65
2023/01/27 01:54:12;;;;;;;11.07;3.40;;;;;;;3.95;100.00;102387.94;4701511;30;20060;-65
2023/01/27 01:56:50;;;;;;;12.65;3.70;;;;;;;3.95;100.00;102393.34;4717896;30;20060;-66
2023/01/27 01:59:34;;;;;;;9.93;3.50;;;;;;;3.92;100.00;102388.28;4685439;30;20053;-65
2023/01/27 02:02:07;;;;;;;11.40;3.60;;;;;;;3.91;100.00;102386.63;4685784;30;20056;-65
2023/01/27 02:04:49;;;;;;;14.68;4.10;;;;;;;3.91;100.00;102381.22;4700790;30;20481;-68
2023/01/27 02:07:33;;;;;;;11.55;3.45;;;;;;;3.89;100.00;102377.88;4718210;30;20643;-64
2023/01/27 02:10:01;;;;;;;13.15;4.00;;;;;;;3.88;100.00;102389.69;4717604;30;20057;-64
2023/01/27 02:12:29;;;;;;;11.65;3.78;;;;;;;3.88;100.00;102397.78;4717110;30;20056;-64
2023/01/27 02:14:58;;;;;;;13.20;4.18;;;;;;;3.88;100.00;102400.50;4716883;30;20075;-64
2023/01/27 02:17:26;;;;;;;11.80;3.83;;;;;;;3.87;100.00;102396.94;4717561;30;20083;-64
2023/01/27 02:20:06;;;;;;;10.10;3.65;;;;;;;3.83;100.00;102385.69;4715630;30;20140;-65
2023/01/27 02:22:38;;;;;;;;;;;;;;;3.85;100.00;102393.59;4702879;30;20061;-64
2023/01/27 02:25:37;;;;;;;11.45;3.97;;;;;;;3.84;100.00;102395.44;4718311;30;20369;-64
2023/01/27 02:28:07;;;;;;;8.68;3.38;;;;;;;3.86;100.00;102406.06;4716341;30;20423;-65
2023/01/27 02:30:35;;;;;;;11.45;3.65;;;;;;;3.83;100.00;102401.03;4701407;30;20423;-64
2023/01/27 02:33:12;;;;;;;11.30;3.88;;;;;;;3.84;100.00;102408.09;4716884;30;20072;-64
2023/01/27 02:36:03;;;;;;;11.25;3.95;;;;;;;3.84;100.00;102414.31;4701531;30;20464;-65
2023/01/27 02:38:47;;;;;;;12.40;3.95;;;;;;;3.86;100.00;102406.06;4714728;30;20061;-65
2023/01/27 02:41:20;;;;;;;13.90;4.38;;;;;;;3.83;100.00;102409.97;4701793;30;20517;-65
2023/01/27 02:43:49;;;;;;;12.60;3.83;;;;;;;3.83;100.00;102418.03;4716474;30;20049;-64
2023/01/27 02:46:17;;;;;;;14.02;4.32;;;;;;;3.83;100.00;102411.81;4718083;30;20418;-65
2023/01/27 02:48:45;;;;;;;13.98;4.70;;;;;;;3.84;100.00;102418.88;4721044;30;20103;-63
2023/01/27 02:51:13;;;;;;;13.27;4.22;;;;;;;3.83;100.00;102411.81;4721012;30;20111;-67
2023/01/27 02:53:43;;;;;;;12.93;4.30;;;;;;;3.76;100.00;102414.41;4704815;30;20057;-64
2023/01/27 02:56:11;;;;;;;15.05;4.43;;;;;;;3.78;100.00;102415.06;4719051;30;20049;-66
2023/01/27 02:58:39;;;;;;;11.40;4.03;;;;;;;3.83;100.00;102407.25;4704606;30;20132;-63
2023/01/27 03:01:11;;;;;;;8.65;4.45;;;;;;;3.84;100.00;102408.91;4691498;30;20414;-63
2023/01/27 03:03:48;;;;;;;13.90;5.35;;;;;;;3.90;100.00;102412.75;4676848;30;20053;-66
2023/01/27 03:06:19;;;;;;;11.95;4.85;;;;;;;3.87;100.00;102425.75;4719128;30;20544;-64
2023/01/27 03:08:47;;;;;;;14.45;4.80;;;;;;;3.84;100.00;102414.31;4717793;30;20053;-64
2023/01/27 03:12:18;;;;;;;9.85;4.15;;;;;;;3.86;100.00;102418.72;4704741;30;20088;-64
2023/01/27 03:14:07;;;;;;;11.95;5.25;;;;;;;3.86;100.00;102416.00;4702485;30;20563;-65
2023/01/27 03:19:21;;;;;;;17.25;6.35;;;;;;;3.75;100.00;102420.84;4725524;30;20080;-65
2023/01/27 03:21:49;;;;;;;14.77;5.53;;;;;;;3.71;100.00;102416.00;4706334;30;20065;-65
2023/01/27 03:24:18;;;;;;;15.48;5.35;;;;;;;3.75;100.00;102420.84;4724226;30;20049;-65
2023/01/27 03:26:48;;;;;;;13.35;5.57;;;;;;;3.79;100.00;102427.50;4713775;30;20067;-65
2023/01/27 03:32:29;;;;;;;12.30;5.53;;;;;;;3.75;100.00;102430.75;4687095;30;20080;-65
2023/01/27 03:35:17;;;;;;;14.32;6.22;;;;;;;3.74;100.00;102429.94;4700664;30;20453;-64
2023/01/27 03:46:16;;;;;;;14.02;5.78;;;;;;;3.68;100.00;102435.19;4670995;30;20050;-64
2023/01/27 03:48:52;;;;;;;15.20;5.93;;;;;;;3.72;100.00;102433.81;4700561;30;20207;-64
2023/01/27 03:51:22;;;;;;;12.40;5.75;;;;;;;3.71;100.00;102446.47;4676907;30;20402;-63
2023/01/27 03:53:50;;;;;;;15.85;7.30;;;;;;;3.71;100.00;102454.56;4715118;30;20067;-64
2023/01/27 03:56:19;;;;;;;13.93;5.82;;;;;;;3.72;100.00;102456.22;4700980;30;20072;-64
2023/01/27 03:58:48;;;;;;;16.25;7.60;;;;;;;3.71;100.00;102446.47;4701993;30;20062;-63
2023/01/27 04:01:22;;;;;;;16.70;7.38;;;;;;;3.67;100.00;102450.53;4695016;30;20095;-64
2023/01/27 04:06:59;;;;;;;13.57;7.93;;;;;;;3.66;100.00;102459.66;4719834;30;20088;-65
2023/01/27 04:09:32;;;;;;;15.27;8.00;;;;;;;3.64;100.00;102453.59;4704050;30;20057;-63
2023/01/27 04:12:03;;;;;;;16.35;8.65;;;;;;;3.65;100.00;102455.28;4717859;30;20049;-63
2023/01/27 04:14:32;;;;;;;14.35;7.68;;;;;;;3.66;100.00;102458.84;4689026;30;20056;-64
2023/01/27 04:17:19;;;;;;;14.68;7.35;;;;;;;3.67;100.00;102453.25;4718826;30;20084;-64
2023/01/27 04:19:48;;;;;;;16.13;8.57;;;;;;;3.74;100.00;102456.88;4718412;30;20141;-65
2023/01/27 04:22:16;;;;;;;13.25;7.65;;;;;;;3.75;100.00;102447.78;4719544;30;20092;-62
2023/01/27 04:24:44;;;;;;;13.55;6.97;;;;;;;3.74;100.00;102451.50;4713478;30;20128;-64
2023/01/27 04:27:14;;;;;;;12.13;7.43;;;;;;;3.68;100.00;102441.47;4700939;30;20076;-65
2023/01/27 04:29:42;;;;;;;14.85;8.40;;;;;;;3.67;100.00;102449.72;4700897;30;20385;-65
2023/01/27 04:32:11;;;;;;;13.60;7.65;;;;;;;3.69;100.00;102448.50;4715792;30;20105;-63
2023/01/27 04:34:39;;;;;;;13.90;8.15;;;;;;;3.70;100.00;102449.34;4717660;30;20053;-65
2023/01/27 04:37:07;;;;;;;12.00;7.05;;;;;;;3.70;100.00;102452.03;4702867;30;20412;-64
2023/01/27 04:39:35;;;;;;;13.48;7.43;;;;;;;3.66;100.00;102459.66;4704578;30;20062;-65
2023/01/27 04:42:03;;;;;;;14.02;7.35;;;;;;;3.66;100.00;102451.56;4698839;30;20056;-64
2023/01/27 04:44:31;;;;;;;10.52;7.25;;;;;;;3.62;100.00;102456.47;4696783;30;20054;-65
2023/01/27 04:46:58;;;;;;;11.15;6.97;;;;;;;3.60;100.00;102455.81;4682492;30;20049;-63
2023/01/27 04:49:26;;;;;;;12.15;7.03;;;;;;;3.60;100.00;102466.59;4684153;30;20065;-64
2023/01/27 04:51:54;;;;;;;13.93;7.28;;;;;;;3.63;100.00;102470.78;4684553;30;20522;-64
2023/01/27 04:54:22;;;;;;;14.20;7.20;;;;;;;3.62;100.00;102469.94;4683383;30;20068;-64
2023/01/27 04:56:56;;;;;;;13.90;8.05;;;;;;;3.56;100.00;102484.16;4680699;30;20060;-66
2023/01/27 04:59:24;;;;;;;12.07;7.40;;;;;;;3.53;100.00;102472.91;4683408;30;20389;-64
2023/01/27 05:01:51;;;;;;;12.65;7.72;;;;;;;3.60;100.00;102473.84;4697106;30;20457;-63
2023/01/27 05:04:19;;;;;;;12.90;8.25;;;;;;;3.66;100.00;102480.41;4685177;30;20144;-63
2023/01/27 05:06:47;;;;;;;13.55;8.57;;;;;;;3.66;100.00;102481.22;4692766;30;20056;-66
2023/01/27 05:09:15;;;;;;;12.43;7.90;;;;;;;3.66;100.00;102473.13;4709028;30;20083;-65
2023/01/27 05:11:43;;;;;;;11.68;7.13;;;;;;;3.62;100.00;102474.50;4712113;30;20065;-64
2023/01/27 05:14:12;;;;;;;13.32;7.78;;;;;;;3.64;100.00;102477.88;4709279;30;20062;-65
2023/01/27 05:16:40;;;;;;;12.40;7.75;;;;;;;3.62;100.00;102469.94;4688427;30;20408;-65
2023/01/27 05:19:08;;;;;;;10.85;7.47;;;;;;;3.65;100.00;102481.41;4673131;30;20054;-65
2023/01/27 05:21:35;;;;;;;10.05;6.63;;;;;;;3.65;100.00;102478.69;4685422;30;20049;-64
2023/01/27 05:24:03;;;;;;;11.23;6.40;;;;;;;3.66;100.00;102481.22;4682593;30;20508;-65
2023/01/27 05:26:32;;;;;;;10.02;6.82;;;;;;;3.69;100.00;102478.16;4683481;30;20054;-65
2023/01/27 05:28:59;;;;;;;9.00;6.45;;;;;;;3.69;100.00;102486.25;4682370;30;20518;-64
2023/01/27 05:31:30;;;;;;;9.02;6.35;;;;;;;3.72;100.00;102485.88;4696498;30;20418;-64
2023/01/27 05:33:59;;;;;;;10.13;6.57;;;;;;;3.72;100.00;102490.44;4696572;30;20065;-64
2023/01/27 05:36:27;;;;;;;9.63;6.15;;;;;;;3.70;100.00;102493.31;4681657;30;20141;-66
2023/01/27 05:38:57;;;;;;;11.30;6.72;;;;;;;3.73;100.00;102498.34;4681234;30;20097;-65
2023/01/27 05:41:25;;;;;;;8.43;6.53;;;;;;;3.72;100.00;102493.97;4683306;30;20559;-65
2023/01/27 05:43:54;;;;;;;10.70;6.30;;;;;;;3.71;100.00;102491.47;4696923;30;20053;-64
2023/01/27 05:46:24;;;;;;;9.02;6.38;;;;;;;3.74;100.00;102501.88;4681814;30;20077;-65
2023/01/27 05:48:53;;;;;;;9.00;6.05;;;;;;;3.70;100.00;102504.09;4682889;30;20054;-65
2023/01/27 05:51:24;;;;;;;9.25;6.40;;;;;;;3.70;100.00;102498.69;4682133;30;20057;-65
2023/01/27 05:53:54;;;;;;;10.98;7.25;;;;;;;3.75;100.00;102507.09;4683657;30;20078;-65
2023/01/27 05:56:22;;;;;;;9.77;6.40;;;;;;;3.76;100.00;102502.53;4683327;30;20050;-64
2023/01/27 05:58:51;;;;;;;10.43;6.65;;;;;;;3.74;100.00;102505.41;4682499;30;20141;-65
2023/01/27 06:01:21;;;;;;;9.23;6.38;;;;;;;3.74;100.00;102516.19;4681185;30;20061;-65
2023/01/27 06:03:49;;;;;;;8.77;6.53;;;;;;;3.74;100.00;102508.09;4696689;30;20054;-64
2023/01/27 06:06:20;;;;;;;10.07;6.10;;;;;;;3.78;100.00;102506.72;4696407;30;20062;-64
2023/01/27 06:08:48;;;;;;;8.23;6.00;;;;;;;3.77;100.00;102507.72;4683268;30;20056;-63
2023/01/27 06:11:18;;;;;;;8.35;5.50;;;;;;;3.77;100.00;102510.44;4691770;30;20055;-63
2023/01/27 06:13:47;;;;;;;12.35;6.85;;;;;;;3.80;100.00;102518.19;4668275;30;20081;-64
2023/01/27 06:16:19;;;;;;;9.13;6.22;;;;;;;3.80;100.00;102522.72;4677426;30;20050;-64
2023/01/27 06:18:50;;;;;;;9.25;5.80;;;;;;;3.76;100.00;102518.72;4693265;30;20111;-61
2023/01/27 06:21:20;;;;;;;8.48;5.65;;;;;;;3.74;100.00;102526.97;4685662;30;20058;-63
2023/01/27 06:23:49;;;;;;;9.68;5.95;;;;;;;3.75;100.00;102522.41;4700328;30;20104;-64
2023/01/27 06:26:18;;;;;;;8.43;5.78;;;;;;;3.73;100.00;102514.53;4687314;30;20073;-64
2023/01/27 06:28:46;;;;;;;8.57;5.63;;;;;;;3.73;100.00;102528.00;4699544;30;20108;-64
2023/01/27 06:31:16;;;;;;;8.63;5.43;;;;;;;3.76;100.00;102521.41;4683829;30;20116;-63
2023/01/27 06:33:44;;;;;;;8.10;5.55;;;;;;;3.77;100.00;102521.22;4657442;30;20061;-66
2023/01/27 06:36:14;;;;;;;7.80;5.57;;;;;;;3.75;100.00;102517.88;4696415;30;20086;-65
2023/01/27 06:38:43;;;;;;;8.10;5.35;;;;;;;3.75;100.00;102517.03;4691717;30;20089;-66
2023/01/27 06:41:12;;;;;;;7.97;5.93;;;;;;;3.73;100.00;102514.53;4704461;30;20136;-64
2023/01/27 06:43:41;;;;;;;7.88;5.18;;;;;;;3.72;100.00;102507.44;4690036;30;20078;-64
2023/01/27 06:46:08;;;;;;;8.45;5.07;;;;;;;3.73;100.00;102513.66;4685945;30;20137;-65
2023/01/27 06:48:39;;;;;;;7.47;4.90;;;;;;;3.74;100.00;102526.13;4684708;30;20054;-66
2023/01/27 06:51:07;;;;;;;11.50;5.65;;;;;;;3.73;100.00;102522.63;4684462;30;20054;-66
2023/01/27 06:53:36;;;;;;;8.07;5.20;;;;;;;3.72;100.00;102523.63;4683547;30;20064;-66
2023/01/27 06:56:05;;;;;;;7.13;4.60;;;;;;;3.71;100.00;102521.94;4698135;30;20060;-67
2023/01/27 06:58:32;;;;;;;8.65;4.88;;;;;;;3.73;100.00;102530.69;4683893;30;20082;-66
2023/01/27 07:01:00;;;;;;;7.38;4.50;;;;;;;3.75;100.00;102530.50;4036387;30;9999940;-65
2023/01/27 07:03:28;;;;;;;6.75;4.20;;;;;;;3.76;100.00;102538.41;4686948;30;20064;-66
2023/01/27 07:05:56;;;;;;;7.68;4.35;;;;;;;3.75;100.00;102533.19;4687137;30;20141;-67
2023/01/27 07:08:24;;;;;;;7.72;4.82;;;;;;;3.77;100.00;102542.78;4687583;30;20060;-67
2023/01/27 07:10:51;;;;;;;6.13;4.47;;;;;;;3.77;100.00;102548.16;4688955;30;20061;-66
2023/01/27 07:13:19;;;;;;;6.80;3.83;;;;;;;3.76;100.00;102535.72;4702608;30;20144;-67
2023/01/27 07:15:47;;;;;;;6.93;4.43;;;;;;;3.80;100.00;102539.75;4688064;30;20057;-67
2023/01/27 07:18:15;;;;;;;10.23;4.63;;;;;;;3.83;100.00;102547.47;4667856;30;20587;-67
2023/01/27 07:20:43;;;;;;;6.32;4.00;;;;;;;3.83;100.00;102533.97;4682555;30;20736;-65
2023/01/27 07:23:11;;;;;;;9.15;4.00;;;;;;;3.84;100.00;102537.50;4681847;30;20057;-67
2023/01/27 07:25:40;;;;;;;6.90;4.07;;;;;;;3.80;100.00;102545.13;4682182;30;20498;-66
2023/01/27 07:28:08;;;;;;;8.85;3.97;;;;;;;3.79;100.00;102535.34;4679717;30;20196;-68
2023/01/27 07:30:37;;;;;;;6.57;3.72;;;;;;;3.78;100.00;102547.16;4649640;30;20066;-64
2023/01/27 07:33:07;;;;;;;5.35;3.83;;;;;;;3.77;100.00;102553.56;4676738;30;20085;-65
2023/01/27 07:35:36;;;;;;;6.40;4.18;;;;;;;3.76;100.00;102553.75;4682147;30;20062;-68
2023/01/27 07:38:05;;;;;;;8.13;3.83;;;;;;;3.77;100.00;102553.56;4680183;30;20058;-67
2023/01/27 07:40:34;;;;;;;6.47;4.22;;;;;;;3.76;100.00;102556.47;4698104;30;20139;-65
2023/01/27 07:43:02;;;;;;;6.90;4.20;;;;;;;3.75;100.00;102566.41;4699562;30;20621;-66
2023/01/27 07:45:29;;;;;;;7.05;3.90;;;;;;;3.72;100.00;102560.53;4712242;30;20057;-66
2023/01/27 07:48:02;;;;;;;6.70;4.03;;;;;;;3.72;100.00;102566.75;4698024;30;20528;-65
2023/01/27 07:50:30;;;;;;;6.40;4.18;;;;;;;3.75;100.00;102562.84;4699078;30;20140;-65
2023/01/27 07:52:59;;;;;;;7.00;4.15;;;;;;;3.76;100.00;102568.06;4700048;30;20480;-66
2023/01/27 07:55:29;;;;;;;5.30;3.72;;;;;;;3.73;100.00;102567.59;4698622;30;20077;-65
2023/01/27 07:57:57;;;;;;;5.43;3.70;;;;;;;3.75;100.00;102576.34;4701733;30;20066;-67
2023/01/27 08:00:25;;;;;;;5.72;3.60;;;;;;;3.74;100.00;102580.88;4693535;30;20153;-64
2023/01/27 08:02:57;;;;;;;6.97;4.35;;;;;;;3.74;100.00;102574.66;4683621;30;20054;-65
2023/01/27 08:05:26;;;;;;;7.18;3.90;;;;;;;3.72;100.00;102577.53;4683655;30;20054;-65
2023/01/27 08:07:54;;;;;;;6.15;3.78;;;;;;;3.72;100.00;102571.31;4685553;30;20068;-65
2023/01/27 08:10:25;;;;;;;5.85;3.70;;;;;;;3.74;100.00;102580.06;4686533;30;20483;-66
2023/01/27 08:12:53;;;;;;;6.10;3.38;;;;;;;3.73;100.00;102579.22;4675562;30;20116;-64
2023/01/27 08:15:21;;;;;;;4.15;3.13;;;;;;;3.73;100.00;102579.22;4684365;30;20054;-64
2023/01/27 08:17:56;;;;;;;6.10;3.72;;;;;;;3.73;100.00;102571.13;4695441;30;20140;-65
2023/01/27 08:20:25;;;;;;;5.50;3.33;;;;;;;3.74;100.00;102580.88;4692175;30;20061;-66
2023/01/27 08:22:53;;;;;;;6.22;3.22;;;;;;;3.75;100.00;102576.34;4684569;30;20474;-65
2023/01/27 08:25:21;;;;;;;5.55;2.97;;;;;;;3.79;100.00;102589.28;4684204;30;20054;-65
2023/01/27 08:27:50;;;;;;;5.28;3.42;;;;;;;3.80;100.00;102585.59;4688253;30;20112;-64
2023/01/27 08:30:18;;;;;;;5.05;3.20;;;;;;;3.82;100.00;102586.25;4683718;30;20524;-65
2023/01/27 08:32:46;;;;;;;4.20;3.10;;;;;;;3.82;100.00;102583.56;4683621;30;20060;-64
2023/01/27 08:35:15;;;;;;;4.90;3.08;;;;;;;3.76;100.00;102584.25;4683428;30;20405;-65
2023/01/27 08:37:42;;;;;;;5.25;3.28;;;;;;;3.74;100.00;102591.66;4680842;30;20096;-65
2023/01/27 08:40:11;;;;;;;5.30;3.30;;;;;;;3.73;100.00;102598.09;4714488;30;20522;-67
2023/01/27 08:42:39;;;;;;;6.80;3.60;;;;;;;3.72;100.00;102604.50;4717923;30;20531;-65
2023/01/27 08:45:08;;;;;;;5.70;3.00;;;;;;;3.75;100.00;102609.53;4718602;30;20108;-66
2023/01/27 08:47:35;;;;;;;4.68;3.00;;;;;;;3.76;100.00;102611.22;4703042;30;20057;-66
2023/01/27 08:50:03;;;;;;;5.28;2.92;;;;;;;3.71;100.00;102623.56;4703031;30;20519;-64
2023/01/27 08:52:31;;;;;;;5.00;2.88;;;;;;;3.72;100.00;102626.06;4717546;30;20137;-65
2023/01/27 08:54:59;;;;;;;6.07;3.08;;;;;;;3.74;100.00;102624.03;4704080;30;20052;-65
2023/01/27 08:57:26;;;;;;;4.43;2.85;;;;;;;3.73;100.00;102626.88;4718893;30;20088;-66
2023/01/27 08:59:54;;;;;;;5.55;2.75;;;;;;;3.73;100.00;102626.88;4703463;30;20065;-66
2023/01/27 09:02:23;;;;;;;5.35;3.00;;;;;;;3.72;100.00;102631.44;4719025;30;20418;-65
2023/01/27 09:04:51;;;;;;;5.05;2.90;;;;;;;3.71;100.00;102623.56;4717801;30;20053;-65
2023/01/27 09:07:18;;;;;;;5.15;3.00;;;;;;;3.73;100.00;102622.34;4714097;30;20092;-65
2023/01/27 09:09:47;;;;;;;4.38;3.17;;;;;;;3.77;100.00;102622.81;4707341;30;20049;-66
2023/01/27 09:12:15;;;;;;;7.00;2.95;;;;;;;3.84;100.00;102623.78;4697980;30;20152;-65
2023/01/27 09:14:43;;;;;;;3.28;2.60;;;;;;;3.81;100.00;102630.38;4700961;30;20067;-64
2023/01/27 09:17:11;;;;;;;4.72;2.88;;;;;;;3.79;100.00;102627.03;4701339;30;20056;-65
2023/01/27 09:19:38;;;;;;;2.90;2.60;;;;;;;3.89;100.00;102629.47;4711962;30;20499;-65
2023/01/27 09:22:06;;;;;;;4.88;2.80;;;;;;;3.88;100.00;102638.59;4718460;30;20061;-65
2023/01/27 09:24:34;;;;;;;6.50;2.83;;;;;;;3.82;100.00;102634.78;4717576;30;20049;-64
2023/01/27 09:27:01;;;;;;;4.95;3.03;;;;;;;3.80;100.00;102650.28;4702695;30;20049;-65
2023/01/27 09:29:29;;;;;;;5.65;3.10;;;;;;;3.73;100.00;102656.53;4717900;30;20112;-65
2023/01/27 09:31:57;;;;;;;7.65;3.10;;;;;;;3.71;100.00;102655.91;4717312;30;20063;-65
2023/01/27 09:34:25;;;;;;;3.75;2.78;;;;;;;3.74;100.00;102655.53;4717319;30;20057;-65
2023/01/27 09:37:01;;;;;;;8.77;3.53;;;;;;;3.73;100.00;102660.09;4687814;30;20053;-65
2023/01/27 09:39:29;;;;;;;;;;;;;;;3.72;100.00;102662.97;4717783;30;20147;-65
2023/01/27 09:42:19;;;;;;;6.22;3.40;;;;;;;3.65;100.00;102660.13;4702169;30;19934;-65
2023/01/27 09:44:52;;;;;;;3.90;2.70;;;;;;;3.59;100.00;102660.84;4718297;30;20067;-65
2023/01/27 09:47:41;;;;;;;3.38;2.92;;;;;;;3.53;100.00;102667.75;4718372;30;20049;-65
2023/01/27 09:50:36;;;;;;;3.78;2.67;;;;;;;3.55;100.00;102657.66;4717124;30;20277;-65
2023/01/27 09:53:04;;;;;;;5.78;3.08;;;;;;;3.56;100.00;102663.88;4718228;30;20056;-64
2023/01/27 09:55:59;;;;;;;5.43;3.28;;;;;;;3.55;100.00;102663.03;4725672;30;20049;-64
2023/01/27 09:59:11;;;;;;;5.85;3.15;;;;;;;3.55;100.00;102667.59;4724398;30;20076;-65
2023/01/27 10:02:00;;;;;;;6.43;3.20;;;;;;;3.51;100.00;102675.22;4721657;30;20466;-66
2023/01/27 10:04:52;;;;;;;7.50;3.17;;;;;;;3.53;100.00;102667.75;4708710;30;20411;-66
2023/01/27 10:07:38;;;;;;;5.35;3.33;;;;;;;3.58;100.00;102661.84;4723594;30;20400;-66
2023/01/27 10:10:10;;;;;;;9.75;3.58;;;;;;;3.60;100.00;102655.25;4722584;30;20450;-65
2023/01/27 10:13:17;;;;;;;3.95;2.90;;;;;;;3.63;100.00;102660.31;4728935;30;20068;-66
2023/01/27 10:16:19;;;;;;;4.25;3.25;;;;;;;3.64;100.00;102655.75;4734310;30;20052;-66
2023/01/27 10:19:16;;;;;;;5.93;3.30;;;;;;;3.69;100.00;102655.25;4713269;30;20053;-64
2023/01/27 10:21:52;;;;;;;3.95;3.00;;;;;;;3.72;100.00;102658.41;4706421;30;20053;-64
2023/01/27 10:24:31;;;;;;;4.00;3.13;;;;;;;3.71;100.00;102651.34;4709045;30;20129;-65
2023/01/27 10:27:35;;;;;;;4.18;3.05;;;;;;;3.72;100.00;102658.41;4705168;30;20053;-65
2023/01/27 10:30:24;;;;;;;7.07;3.70;;;;;;;3.75;100.00;102647.28;4696239;30;20061;-66
2023/01/27 10:33:20;;;;;;;5.85;3.55;;;;;;;3.75;100.00;102652.69;4715837;30;20543;-66
2023/01/27 10:35:59;;;;;;;4.63;2.92;;;;;;;3.75;100.00;102658.06;4719521;30;20077;-65
2023/01/27 10:38:31;;;;;;;4.78;3.20;;;;;;;3.72;100.00;102658.41;4704873;30;20565;-65
2023/01/27 10:41:22;;;;;;;6.10;3.38;;;;;;;3.67;100.00;102655.41;4708858;30;20056;-66
2023/01/27 10:44:24;;;;;;;5.70;3.58;;;;;;;3.64;100.00;102655.75;4723283;30;20096;-68
2023/01/27 10:46:58;;;;;;;4.30;2.92;;;;;;;3.65;100.00;102654.75;4704655;30;20407;-68
2023/01/27 10:49:34;;;;;;;3.10;2.67;;;;;;;3.71;100.00;102656.75;4727708;30;20065;-70
2023/01/27 10:52:12;;;;;;;5.43;3.60;;;;;;;3.69;100.00;102658.78;4725578;30;20048;-69
2023/01/27 10:54:40;;;;;;;8.20;3.20;;;;;;;3.75;100.00;102651.81;4722829;30;20049;-69
2023/01/27 10:57:20;;;;;;;5.93;3.08;;;;;;;3.79;100.00;102653.16;4711533;30;20060;-69
2023/01/27 11:00:05;;;;;;;4.25;2.90;;;;;;;3.79;100.00;102648.59;4711405;30;20061;-69
2023/01/27 11:03:12;;;;;;;6.88;3.13;;;;;;;3.76;100.00;102648.97;4725255;30;20057;-69
2023/01/27 11:05:51;;;;;;;4.35;3.17;;;;;;;3.76;100.00;102653.50;4709895;30;20057;-68
2023/01/27 11:08:25;;;;;;;6.47;3.20;;;;;;;3.73;100.00;102648.44;4702917;30;20057;-69
2023/01/27 11:13:45;;;;;;;5.05;3.13;;;;;;;3.69;100.00;102644.47;4691738;30;20067;-70
2023/01/27 11:16:15;;;;;;;6.60;3.67;;;;;;;3.72;100.00;102649.47;4721178;30;20060;-69
2023/01/27 11:18:46;;;;;;;6.28;3.58;;;;;;;3.77;100.00;102649.78;4705469;30;20107;-68
2023/01/27 11:21:27;;;;;;;7.78;4.15;;;;;;;4.06;100.00;102641.00;4706166;30;20063;-67
2023/01/27 11:23:55;;;;;;;4.85;3.55;;;;;;;4.01;100.00;102646.09;4690839;30;20057;-66
2023/01/27 11:26:39;;;;;;;4.50;3.47;;;;;;;3.87;100.00;102644.16;4703550;30;20084;-68
2023/01/27 11:29:35;;;;;;;4.40;3.55;;;;;;;3.81;100.00;102632.25;4719802;30;20052;-69
2023/01/27 11:32:12;;;;;;;5.68;4.13;;;;;;;3.77;100.00;102642.53;4720056;30;20053;-68
2023/01/27 11:34:56;;;;;;;7.25;4.43;;;;;;;3.78;100.00;102636.13;4719437;30;20411;-69
2023/01/27 11:37:38;;;;;;;6.55;4.03;;;;;;;3.76;100.00;102632.78;4704918;30;20061;-68
2023/01/27 11:40:17;;;;;;;6.00;3.97;;;;;;;3.75;100.00;102632.94;4720266;30;20491;-69
2023/01/27 11:42:45;;;;;;;5.90;4.30;;;;;;;3.70;100.00;102630.78;4720994;30;20498;-68
2023/01/27 11:45:14;;;;;;;8.20;4.38;;;;;;;3.71;100.00;102635.16;4719466;30;20124;-65
2023/01/27 11:47:43;;;;;;;5.90;4.20;;;;;;;3.69;100.00;102630.97;4715526;30;20075;-66
2023/01/27 11:50:19;;;;;;;5.65;4.07;;;;;;;3.74;100.00;102624.03;4702059;30;20062;-65
2023/01/27 11:52:55;;;;;;;6.78;4.70;;;;;;;3.79;100.00;102632.41;4716348;30;20053;-67
2023/01/27 11:55:26;;;;;;;6.65;4.07;;;;;;;3.77;100.00;102634.44;4718805;30;20132;-65
2023/01/27 11:58:01;;;;;;;8.70;5.05;;;;;;;3.74;100.00;102629.41;4714480;30;20045;-67
2023/01/27 12:00:34;;;;;;;5.03;3.97;;;;;;;3.69;100.00;102636.38;4719995;30;20124;-67
2023/01/27 12:03:12;;;;;;;7.15;4.43;;;;;;;3.67;100.00;102643.78;4690024;30;20052;-68
2023/01/27 12:05:47;;;;;;;5.90;3.88;;;;;;;3.69;100.00;102641.75;4718622;30;20503;-67
2023/01/27 12:08:41;;;;;;;7.72;3.90;;;;;;;3.69;100.00;102647.16;4063640;30;10000766;-67
2023/01/27 12:11:26;;;;;;;6.22;3.80;;;;;;;3.72;100.00;102623.34;4698278;30;20071;-66
2023/01/27 12:14:02;;;;;;;4.47;3.47;;;;;;;3.76;100.00;102630.09;4705290;30;20052;-66
2023/01/27 12:16:43;;;;;;;6.95;4.05;;;;;;;3.79;100.00;102629.72;4700929;30;20060;-67